Crosby, United Kingdom
Current Conditions -  °F | °C
As of 12:50 PM on Saturday 25 Oct 2014 (Local Time) from EGGP Reporting Station
Broken Clouds Broken Clouds  
Wind Chill: 57°   Ceiling: 4000
Heat Index: 57°   Visibility: 6mi
Dew Point: 48°   Wind: 21mph
Humidity: 72%   Direction: 240°WSW
Pressure: 29.91"   Gusts: 32mph
Location:  53.49°N, 3.03°W
Report Text: EGGP 251150Z 24018G28KT 9999 FEW022 BKN040 14/09 Q1013
Loading
Personal Weather Stations






























Interactive Weather Map
Tropical Storm Tracking
New forecast layout! Learn more

10-Day Weather Forecast

Advertisements
Track Severe Weather on mobile